| Date | Time | Temp. (oF) | Dew Point (oF) | Rel. Hum. (%) | Press. (in.) | Wind Dir. | Wind Speed (mph) | Hourly Rainfall (in.) |
|
|---|---|---|---|---|---|---|---|---|---|
| 1 | 03/08 | 00:00 | 31 | 24 | 78 | 30.04 | SW | 0 | 0.00 |
| 2 | 03/07 | 23:00 | 32 | 24 | 73 | 30.05 | S | 0 | 0.00 |
| 3 | 03/07 | 22:00 | 32 | 24 | 73 | 30.05 | SSW | 0 | 0.00 |
| 4 | 03/07 | 21:00 | 34 | 24 | 67 | 30.04 | S | 0 | 0.00 |
| 5 | 03/07 | 20:00 | 36 | 24 | 62 | 30.05 | S | 0 | 0.00 |
| 6 | 03/07 | 19:00 | 37 | 25 | 62 | 30.05 | SSE | 0 | 0.00 |
| 7 | 03/07 | 18:00 | 39 | 24 | 55 | 30.05 | S | 4 | 0.00 |
| 8 | 03/07 | 17:00 | 43 | 21 | 43 | 30.03 | SSW | 3 | 0.00 |
| 9 | 03/07 | 16:00 | 42 | 18 | 39 | 30.03 | S | 11 | 0.00 |
| 10 | 03/07 | 15:00 | 40 | 18 | 41 | 30.07 | SSW | 8 | 0.00 |
| 11 | 03/07 | 14:00 | 39 | 17 | 42 | 30.10 | S | 6 | 0.00 |
| 12 | 03/07 | 13:00 | 37 | 14 | 40 | 30.16 | SSW | 7 | 0.00 |
| 13 | 03/07 | 12:00 | 34 | 15 | 46 | 30.21 | SSW | 5 | 0.00 |
| 14 | 03/07 | 11:00 | 31 | 16 | 55 | 30.25 | NE | 0 | 0.00 |
| 15 | 03/07 | 10:00 | 25 | 16 | 71 | 30.28 | NE | 0 | 0.00 |
| 16 | 03/07 | 09:00 | 18 | 17 | 96 | 30.31 | E | 0 | 0.00 |
| 17 | 03/07 | 08:00 | 6 | 5 | 98 | 30.32 | SSE | 0 | 0.00 |
| 18 | 03/07 | 07:00 | -1 | -1 | 96 | 30.32 | SSW | 0 | 0.00 |
| 19 | 03/07 | 06:00 | -1 | -1 | 96 | 30.32 | W | 0 | 0.00 |
| 20 | 03/07 | 05:00 | 0 | 0 | 96 | 30.33 | NNW | 0 | 0.00 |
| 21 | 03/07 | 04:00 | 0 | 0 | 96 | 30.32 | ESE | 0 | 0.00 |
| 22 | 03/07 | 03:00 | 1 | 0 | 96 | 30.34 | S | 0 | 0.00 |
| 23 | 03/07 | 02:00 | 1 | 0 | 95 | 30.35 | SE | 0 | 0.00 |
| 24 | 03/07 | 01:00 | 3 | 1 | 95 | 30.36 | S | 0 | 0.00 |